createdAt,value
2017-12-29T22:06:12.227Z,3.93
2017-12-29T22:08:44.439Z,3.58
2017-12-29T22:11:17.258Z,3.83
2017-12-29T22:13:48.572Z,3.90
2017-12-29T22:16:19.409Z,3.89
2017-12-29T22:18:55.013Z,3.97
2017-12-29T22:21:29.938Z,3.99
2017-12-29T22:24:04.320Z,3.98
2017-12-29T22:26:36.671Z,4.05
2017-12-29T22:29:08.396Z,4.02
2017-12-29T22:31:38.230Z,3.97
2017-12-29T22:34:09.610Z,3.82
2017-12-29T22:36:39.863Z,3.85
2017-12-29T22:39:10.611Z,3.77
2017-12-29T22:41:41.164Z,3.71
2017-12-29T22:44:12.100Z,3.77
2017-12-29T22:46:41.895Z,3.72
2017-12-29T22:49:13.885Z,3.71
2017-12-29T22:51:44.762Z,3.57
2017-12-29T22:54:15.061Z,3.59
2017-12-29T22:56:49.942Z,3.59
2017-12-29T22:59:21.373Z,3.67
2017-12-29T23:01:54.415Z,3.70
2017-12-29T23:04:27.655Z,3.80
2017-12-29T23:06:57.759Z,3.84
2017-12-29T23:09:32.934Z,3.83
2017-12-29T23:12:05.967Z,3.87
2017-12-29T23:14:38.451Z,3.90
2017-12-29T23:17:15.192Z,3.96
2017-12-29T23:19:46.838Z,3.94
2017-12-29T23:22:18.379Z,3.92
2017-12-29T23:24:48.337Z,3.97
2017-12-29T23:27:19.708Z,3.89
2017-12-29T23:29:51.296Z,3.86
2017-12-29T23:32:23.539Z,3.89
2017-12-29T23:34:54.485Z,3.86
2017-12-29T23:37:25.534Z,3.81
2017-12-29T23:39:57.479Z,3.72
2017-12-29T23:42:27.509Z,3.85
2017-12-29T23:44:57.551Z,3.80
2017-12-29T23:47:27.926Z,3.85
2017-12-29T23:49:58.253Z,3.65
2017-12-29T23:52:29.596Z,3.79
2017-12-29T23:54:59.820Z,3.76
2017-12-29T23:57:30.240Z,3.71
